»·PEaware :: N9841Q KLAX-KSAN

N9841Q :: KLAX-KSAN

FLIGHT INFORMATION

Flight Status: Arrived
Operator: Privately registered:
United States
More flights under this callsign
Pilot: Jimmy H. (16574)
Aircraft: PIPER PA-18 SUPER CUB
(PA18)
More flights by this aircraft type
Origin: KLAX Los Angeles Intl
United States
Destination: KSAN San Diego Intl-Lindbergh
United States
More flights between these airports :: More routes between these airports
Route:
File this flight plan on PilotEdge
Remarks: Stay away from the 747s... CAT-11
Altitude:
(Current/Filed)
2,500ft
Speed:
(Current/Filed)
110kts
Departed: 28-Sep-17 10:53 AM
Arrived: 28-Sep-17 12:04 PM
Distance/Time
Traveled:
95nm/1:11
Distance/Time
To Go:
Arrived

Flight Plot

Page will automatically refresh every two minutes.


Map Options




Map Legend


Flown Route
Filed Route
Departure Airport
Arrival Airport
Navaid (VOR, NDB)
Fix

Horizontal Profiles

Position Reports

Time Latitude Longitude Heading Altitude Ground
Speed
28-Sep-17 10:36 33.932774 -118.399112 21 115ft 0kts
28-Sep-17 10:37 33.932774 -118.399112 21 115ft 0kts
28-Sep-17 10:38 33.932774 -118.399112 21 115ft 0kts
28-Sep-17 10:39 33.932774 -118.399112 21 115ft 0kts
28-Sep-17 10:40 33.932774 -118.399112 21 115ft 0kts
28-Sep-17 10:41 33.932774 -118.399112 21 115ft 0kts
28-Sep-17 10:42 33.932774 -118.399112 21 115ft 0kts
28-Sep-17 10:43 33.932774 -118.399112 21 115ft 0kts
28-Sep-17 10:44 33.932774 -118.399112 21 115ft 0kts
28-Sep-17 10:45 33.932774 -118.399112 21 115ft 0kts
28-Sep-17 10:46 33.932774 -118.399112 21 115ft 0kts
28-Sep-17 10:47 33.932774 -118.399112 21 115ft 0kts
28-Sep-17 10:48 33.932774 -118.399112 21 115ft 0kts
28-Sep-17 10:49 33.932774 -118.399112 21 115ft 0kts
28-Sep-17 10:50 33.932774 -118.399112 21 115ft 0kts
28-Sep-17 10:51 33.933890 -118.398152 51 111ft 6kts
28-Sep-17 10:52 33.934797 -118.395768 82 107ft 13kts
28-Sep-17 10:53 33.935255 -118.391278 83 102ft 12kts
28-Sep-17 10:54 33.935676 -118.387177 82 99ft 11kts
28-Sep-17 10:55 33.936143 -118.383006 49 95ft 8kts
28-Sep-17 10:56 33.936497 -118.382770 353 95ft 0kts
28-Sep-17 10:57 33.936377 -118.392362 262 141ft 94kts
28-Sep-17 10:58 33.934135 -118.424975 266 766ft 101kts
28-Sep-17 10:59 33.932483 -118.457526 266 1496ft 94kts
28-Sep-17 11:00 33.924590 -118.484408 188 2286ft 93kts
28-Sep-17 11:01 33.901917 -118.481317 172 2501ft 103kts
28-Sep-17 11:02 33.873566 -118.476897 172 2498ft 102kts
28-Sep-17 11:03 33.845624 -118.472551 172 2499ft 101kts
28-Sep-17 11:04 33.813000 -118.467477 172 2499ft 101kts
28-Sep-17 11:05 33.785027 -118.463118 172 2499ft 101kts
28-Sep-17 11:06 33.757093 -118.458758 172 2499ft 101kts
28-Sep-17 11:07 33.729026 -118.454385 172 2508ft 102kts
28-Sep-17 11:08 33.706105 -118.448429 139 2520ft 102kts
28-Sep-17 11:09 33.686321 -118.423570 132 2524ft 103kts
28-Sep-17 11:10 33.666763 -118.398150 131 2530ft 104kts
28-Sep-17 11:11 33.647198 -118.372510 131 2537ft 104kts
28-Sep-17 11:12 33.627504 -118.346642 131 2544ft 105kts
28-Sep-17 11:13 33.607703 -118.320627 131 2551ft 106kts
28-Sep-17 11:14 33.587771 -118.294451 131 2550ft 106kts
28-Sep-17 11:15 33.567953 -118.268442 131 2544ft 105kts
28-Sep-17 11:16 33.548188 -118.242521 131 2538ft 105kts
28-Sep-17 11:17 33.528615 -118.216870 131 2532ft 104kts
28-Sep-17 11:18 33.509095 -118.191304 131 2526ft 103kts
28-Sep-17 11:19 33.489645 -118.165850 131 2520ft 103kts
28-Sep-17 11:20 33.470349 -118.140615 131 2514ft 102kts
28-Sep-17 11:21 33.451536 -118.116028 131 2507ft 96kts
28-Sep-17 11:22 33.433578 -118.092568 131 2504ft 95kts
28-Sep-17 11:23 33.415597 -118.069105 131 2507ft 96kts
28-Sep-17 11:24 33.397501 -118.045509 131 2539ft 97kts
28-Sep-17 11:25 33.379014 -118.021420 131 2542ft 98kts
28-Sep-17 11:26 33.360316 -117.997070 131 2544ft 99kts
28-Sep-17 11:27 33.341614 -117.972728 131 2545ft 99kts
28-Sep-17 11:28 33.322903 -117.948390 131 2545ft 99kts
28-Sep-17 11:29 33.304189 -117.924066 131 2543ft 99kts
28-Sep-17 11:30 33.285599 -117.899917 132 2540ft 98kts
28-Sep-17 11:31 33.267129 -117.875667 132 2520ft 99kts
28-Sep-17 11:32 33.248560 -117.851479 132 2511ft 99kts
28-Sep-17 11:33 33.229727 -117.827018 132 2505ft 100kts
28-Sep-17 11:34 33.210645 -117.802263 133 2503ft 101kts
28-Sep-17 11:35 33.191490 -117.777448 134 2501ft 102kts
28-Sep-17 11:36 33.172266 -117.752577 135 2500ft 101kts
28-Sep-17 11:37 33.153090 -117.727796 135 2499ft 101kts
28-Sep-17 11:38 33.133940 -117.703068 136 2499ft 101kts
28-Sep-17 11:39 33.114921 -117.678529 136 2499ft 100kts
28-Sep-17 11:40 33.095909 -117.654017 136 2499ft 100kts
28-Sep-17 11:41 33.076902 -117.629519 136 2499ft 100kts
28-Sep-17 11:42 33.057869 -117.605018 136 2499ft 100kts
28-Sep-17 11:43 33.038875 -117.580584 136 2509ft 100kts
28-Sep-17 11:44 33.019854 -117.556109 136 2510ft 100kts
28-Sep-17 11:45 33.000894 -117.531731 136 2511ft 100kts
28-Sep-17 11:46 32.981972 -117.507417 136 2512ft 100kts
28-Sep-17 11:47 32.965427 -117.481408 102 2514ft 102kts
28-Sep-17 11:48 32.983881 -117.478421 287 2518ft 92kts
28-Sep-17 11:49 32.993165 -117.507229 287 2512ft 93kts
28-Sep-17 11:50 32.978899 -117.524125 177 2302ft 82kts
28-Sep-17 11:51 32.964782 -117.503707 122 1491ft 74kts
28-Sep-17 11:52 32.953828 -117.479966 122 1517ft 84kts
28-Sep-17 11:53 32.941797 -117.454502 122 1519ft 92kts
28-Sep-17 11:54 32.925563 -117.431802 143 1519ft 91kts
28-Sep-17 11:55 32.907121 -117.410916 136 1520ft 92kts
28-Sep-17 11:56 32.889461 -117.388685 135 1520ft 92kts
28-Sep-17 11:57 32.871841 -117.366189 134 1521ft 93kts
28-Sep-17 11:58 32.854192 -117.343623 134 1521ft 94kts
28-Sep-17 11:59 32.836282 -117.320722 134 1521ft 94kts
28-Sep-17 12:00 32.818291 -117.297742 134 1521ft 95kts
28-Sep-17 12:01 32.810428 -117.268844 93 1522ft 97kts
28-Sep-17 12:02 32.808386 -117.236836 93 1522ft 98kts
28-Sep-17 12:03 32.797169 -117.212442 164 1398ft 84kts
28-Sep-17 12:04 32.774898 -117.207833 179 1216ft 80kts
28-Sep-17 12:05 32.753707 -117.200536 162 1038ft 76kts
28-Sep-17 12:06 32.744008 -117.180503 103 939ft 81kts
28-Sep-17 12:07 32.734999 -117.168999 188 533ft 43kts
28-Sep-17 12:08 32.730763 -117.178089 282 69ft 34kts
28-Sep-17 12:09 32.732871 -117.184303 12 16ft 8kts
28-Sep-17 12:10 32.733335 -117.184050 84 17ft 8kts
28-Sep-17 12:11 32.733825 -117.183239 281 17ft 9kts
28-Sep-17 12:12 32.733966 -117.183058 104 17ft 0kts
28-Sep-17 12:13 32.733966 -117.183058 104 17ft 0kts
28-Sep-17 12:14 32.733966 -117.183058 104 17ft 0kts

Navigation Log

Ident Type
1. KLAX Airport
2. KSAN Airport